Etusivu
METAR-TAF:

METAR-TAF

Lentoasemat :

Nebraska City Municipal Airport

Nebraska City, Nebraska, Yhdysvallat

Leveyspiiri: 40-36N, Pituuspiiri: 095-51W, korkeus merenpinnasta: 354 m

Tämänhetkinen sää

Tämä raportti tehtiin 22 minuuttia sitten, kello 20.35 UTC
Tuuli 13 kn pohjoisen/luoteesta puuskistuen 18 kn:hen
Lämpötila 3°C
Kosteus 32%
Ilmanpaine 1027 hPa
Näkyvyys: 16.1 km
selkeää

METAR: KAFK 262035Z AUTO 33013G18KT 10SM CLR 03/M12 A3032 RMK AO2 T00341120

Aika: 14:57 (20:57 UTC)


TAF: puuttuu

Säähavainnot ja -ennusteet yli 4000 lentoasemalta (METAR- ja TAF-raportit).

Käytössä olevat sääasemat on merkitty karttaan keltaisilla ja punaisilla pisteillä.

Aseta hiiri pisteen päälle nähdäksesi sääaseman nimen.

Klikkaa sitten nähdäksesi säähavainnot ja -ennusteet.

Kartan vaihtaminen: klikkaa mustalla rastilla varustettuja vihreitä pisteitä, niin voit zoomata sisään; viivalla varustettua vihreää pistettä, niin voit zoomata ulos tai vihreitä nuolia, niin pääset viereisille kartoille.


METAR-TAF: